createdAt,value
2022-12-18T00:01:22.044Z,84.91
2022-12-18T00:03:49.468Z,84.94
2022-12-18T00:06:16.459Z,85.22
2022-12-18T00:08:45.500Z,84.74
2022-12-18T00:11:14.804Z,84.81
2022-12-18T00:13:42.112Z,85.20
2022-12-18T00:16:13.374Z,84.98
2022-12-18T00:18:41.154Z,85.04
2022-12-18T00:21:09.598Z,85.20
2022-12-18T00:23:37.737Z,84.99
2022-12-18T00:26:07.609Z,84.35
2022-12-18T00:28:34.472Z,85.05
2022-12-18T00:31:07.059Z,84.48
2022-12-18T00:33:35.267Z,84.49
2022-12-18T00:36:07.197Z,84.61
2022-12-18T00:38:34.566Z,85.09
2022-12-18T00:41:01.052Z,85.05
2022-12-18T00:43:27.821Z,84.66
2022-12-18T00:45:54.561Z,84.89
2022-12-18T00:48:21.477Z,84.83
2022-12-18T00:50:51.668Z,85.93
2022-12-18T00:53:18.916Z,85.03
2022-12-18T00:55:46.218Z,86.20
2022-12-18T00:58:13.822Z,86.46
2022-12-18T01:00:40.634Z,85.55
2022-12-18T01:03:07.570Z,85.73
2022-12-18T01:05:40.986Z,86.05
2022-12-18T01:08:07.557Z,86.31
2022-12-18T01:10:34.108Z,87.13
2022-12-18T01:13:00.628Z,87.66
2022-12-18T01:15:27.152Z,87.72
2022-12-18T01:17:54.364Z,88.06
2022-12-18T01:20:21.606Z,88.42
2022-12-18T01:22:48.071Z,88.11
2022-12-18T01:25:14.572Z,88.10
2022-12-18T01:27:41.052Z,87.47
2022-12-18T01:30:08.207Z,88.53
2022-12-18T01:32:34.723Z,87.73
2022-12-18T01:35:01.234Z,88.16
2022-12-18T01:37:27.833Z,88.71
2022-12-18T01:39:55.579Z,87.28
2022-12-18T01:42:22.969Z,87.80
2022-12-18T01:45:21.225Z,87.69
2022-12-18T01:47:50.617Z,87.97
2022-12-18T01:50:23.354Z,88.05
2022-12-18T01:52:56.607Z,87.66
2022-12-18T01:55:26.090Z,87.66
2022-12-18T01:57:55.985Z,87.09
2022-12-18T02:00:24.144Z,86.71
2022-12-18T02:02:50.936Z,86.99
2022-12-18T02:05:21.021Z,86.53
2022-12-18T02:08:02.702Z,86.61
2022-12-18T02:10:45.541Z,86.40
2022-12-18T02:13:20.864Z,86.21
2022-12-18T02:16:03.628Z,86.03
2022-12-18T02:18:38.004Z,86.14
2022-12-18T02:21:19.864Z,86.15
2022-12-18T02:23:50.683Z,85.69
2022-12-18T02:26:37.236Z,85.80
2022-12-18T02:29:09.289Z,85.95
2022-12-18T02:31:44.191Z,85.90
2022-12-18T02:34:12.800Z,86.05
2022-12-18T02:36:43.387Z,85.86
2022-12-18T02:39:12.627Z,86.04
2022-12-18T02:41:40.083Z,86.06
2022-12-18T02:44:12.307Z,86.12
2022-12-18T02:46:51.176Z,86.55
2022-12-18T02:49:26.726Z,86.34
2022-12-18T02:52:06.095Z,86.67
2022-12-18T02:55:06.084Z,86.91
2022-12-18T02:57:43.889Z,86.70
2022-12-18T03:00:31.737Z,86.66
2022-12-18T03:03:33.827Z,86.78
2022-12-18T03:06:24.684Z,86.61
2022-12-18T03:08:59.488Z,86.89
2022-12-18T03:11:55.806Z,86.77
2022-12-18T03:14:26.469Z,86.73
2022-12-18T03:16:59.181Z,86.35
2022-12-18T03:19:30.502Z,86.68
2022-12-18T03:21:58.800Z,86.43
2022-12-18T03:24:28.866Z,86.66
2022-12-18T03:27:01.170Z,86.51
2022-12-18T03:29:35.036Z,86.67
2022-12-18T03:32:12.600Z,86.16
2022-12-18T03:34:43.458Z,86.16
2022-12-18T03:37:09.931Z,86.34
2022-12-18T03:39:37.427Z,85.91
2022-12-18T03:42:18.857Z,85.82
2022-12-18T03:45:09.915Z,86.26
2022-12-18T03:47:42.433Z,86.22
2022-12-18T03:50:27.478Z,86.08
2022-12-18T03:53:01.068Z,86.05
2022-12-18T03:55:32.057Z,86.05
2022-12-18T03:58:00.714Z,85.56
2022-12-18T04:00:28.137Z,86.17
2022-12-18T04:02:56.976Z,86.02
2022-12-18T04:05:26.554Z,86.28
2022-12-18T04:07:54.930Z,86.45
2022-12-18T04:10:21.525Z,85.95
2022-12-18T04:12:48.081Z,85.87
2022-12-18T04:15:15.152Z,85.82
2022-12-18T04:17:49.564Z,85.97
2022-12-18T04:20:16.865Z,85.86
2022-12-18T04:22:43.659Z,85.72
2022-12-18T04:25:10.152Z,85.66
2022-12-18T04:27:36.616Z,85.85
2022-12-18T04:30:03.634Z,85.74
2022-12-18T04:32:30.089Z,85.85
2022-12-18T04:34:56.583Z,86.01
2022-12-18T04:37:23.156Z,86.07
2022-12-18T04:39:49.610Z,85.69
2022-12-18T04:42:16.073Z,86.22
2022-12-18T04:44:42.619Z,86.20
2022-12-18T04:47:09.124Z,86.18
2022-12-18T04:49:35.608Z,86.04
2022-12-18T04:52:02.090Z,86.23
2022-12-18T04:54:28.755Z,86.27
2022-12-18T04:56:55.346Z,86.38
2022-12-18T04:59:21.879Z,86.12
2022-12-18T05:01:48.654Z,86.16
2022-12-18T05:04:15.299Z,85.92
2022-12-18T05:06:41.868Z,86.01
2022-12-18T05:09:08.355Z,86.26
2022-12-18T05:11:37.414Z,85.95
2022-12-18T05:14:03.942Z,86.22
2022-12-18T05:16:30.466Z,86.23
2022-12-18T05:18:57.002Z,85.72
2022-12-18T05:21:23.477Z,85.78
2022-12-18T05:23:49.952Z,85.97
2022-12-18T05:26:19.118Z,85.71
2022-12-18T05:28:46.874Z,85.96
2022-12-18T05:31:13.902Z,85.86
2022-12-18T05:33:40.780Z,85.80
2022-12-18T05:36:09.758Z,86.05
2022-12-18T05:38:38.057Z,86.36
2022-12-18T05:41:05.821Z,85.79
2022-12-18T05:43:34.353Z,85.87
2022-12-18T05:46:08.230Z,85.68
2022-12-18T05:48:35.203Z,85.75
2022-12-18T05:51:06.997Z,86.05
2022-12-18T05:53:33.597Z,85.63
2022-12-18T05:56:09.265Z,85.85
2022-12-18T05:58:36.032Z,86.10
2022-12-18T06:01:14.773Z,86.21
2022-12-18T06:03:41.993Z,86.55
2022-12-18T06:06:20.493Z,86.99
2022-12-18T06:08:47.428Z,86.97
2022-12-18T06:11:16.719Z,86.95
2022-12-18T06:13:43.204Z,86.57
2022-12-18T06:16:09.783Z,86.73
2022-12-18T06:18:36.638Z,85.74
2022-12-18T06:21:03.100Z,86.05
2022-12-18T06:23:29.588Z,86.26
2022-12-18T06:25:56.063Z,86.53
2022-12-18T06:28:22.620Z,86.54
2022-12-18T06:30:49.893Z,85.72
2022-12-18T06:33:17.561Z,85.46
2022-12-18T06:35:44.115Z,85.91
2022-12-18T06:38:10.600Z,85.37
2022-12-18T06:40:38.889Z,85.61
2022-12-18T06:43:05.684Z,85.66
2022-12-18T06:45:32.372Z,85.68
2022-12-18T06:47:58.936Z,85.52
2022-12-18T06:50:25.784Z,84.72
2022-12-18T06:52:52.284Z,84.73
2022-12-18T06:55:19.004Z,84.35
2022-12-18T06:57:45.468Z,84.62
2022-12-18T07:00:12.842Z,84.62
2022-12-18T07:02:39.475Z,85.14
2022-12-18T07:05:10.697Z,84.32
2022-12-18T07:07:37.958Z,84.76
2022-12-18T07:10:04.948Z,84.00
2022-12-18T07:12:31.424Z,83.90
2022-12-18T07:14:58.091Z,83.91
2022-12-18T07:17:24.811Z,84.58
2022-12-18T07:19:51.439Z,84.06
2022-12-18T07:22:18.067Z,84.01
2022-12-18T07:24:44.552Z,83.92
2022-12-18T07:27:10.994Z,83.54
2022-12-18T07:29:37.469Z,84.25
2022-12-18T07:32:04.828Z,83.83
2022-12-18T07:34:31.489Z,84.14
2022-12-18T07:36:57.993Z,83.50
2022-12-18T07:39:24.551Z,83.49
2022-12-18T07:42:11.060Z,84.37
2022-12-18T07:44:38.195Z,83.42
2022-12-18T07:47:07.789Z,83.75
2022-12-18T07:49:38.285Z,83.31
2022-12-18T07:52:04.880Z,83.52
2022-12-18T07:54:31.343Z,83.18
2022-12-18T07:56:57.809Z,83.32
2022-12-18T07:59:24.289Z,82.88
2022-12-18T08:01:50.885Z,83.29
2022-12-18T08:04:17.492Z,82.89
2022-12-18T08:06:47.710Z,83.60
2022-12-18T08:09:15.015Z,83.58
2022-12-18T08:11:41.504Z,82.86
2022-12-18T08:14:07.973Z,83.29
2022-12-18T08:16:34.605Z,83.59
2022-12-18T08:19:01.364Z,82.53
2022-12-18T08:21:30.577Z,83.05
2022-12-18T08:23:59.706Z,83.34
2022-12-18T08:26:29.355Z,83.68
2022-12-18T08:28:57.361Z,83.25
2022-12-18T08:31:24.578Z,83.05
2022-12-18T08:33:52.466Z,83.33
2022-12-18T08:36:20.476Z,82.98
2022-12-18T08:38:48.000Z,82.66
2022-12-18T08:41:17.121Z,82.76
2022-12-18T08:44:02.695Z,82.78
2022-12-18T08:46:35.219Z,82.44
2022-12-18T08:49:02.014Z,83.06
2022-12-18T08:51:29.460Z,83.08
2022-12-18T08:53:56.208Z,82.81
2022-12-18T08:56:23.163Z,83.00
2022-12-18T08:58:53.373Z,82.78
2022-12-18T09:01:20.903Z,83.21
2022-12-18T09:03:47.492Z,82.81
2022-12-18T09:06:16.976Z,82.88
2022-12-18T09:08:47.068Z,82.57
2022-12-18T09:11:21.733Z,83.25
2022-12-18T09:13:48.327Z,82.92
2022-12-18T09:16:14.900Z,83.25
2022-12-18T09:18:41.998Z,82.97
2022-12-18T09:21:14.310Z,82.20
2022-12-18T09:23:41.166Z,82.70
2022-12-18T09:26:07.782Z,82.58
2022-12-18T09:28:34.622Z,81.98
2022-12-18T09:31:05.772Z,82.36
2022-12-18T09:33:32.333Z,81.96
2022-12-18T09:35:58.846Z,81.84
2022-12-18T09:38:25.322Z,81.90
2022-12-18T09:41:00.675Z,82.08
2022-12-18T09:43:45.233Z,81.84
2022-12-18T09:46:19.860Z,81.84
2022-12-18T09:49:13.647Z,81.30
2022-12-18T09:51:50.353Z,81.50
2022-12-18T09:54:27.759Z,81.91
2022-12-18T09:56:54.692Z,81.38
2022-12-18T09:59:34.359Z,81.25
2022-12-18T10:02:01.149Z,81.78
2022-12-18T10:04:32.834Z,81.48
2022-12-18T10:07:10.140Z,81.06
2022-12-18T10:09:57.016Z,81.37
2022-12-18T10:12:43.677Z,80.32
2022-12-18T10:15:10.096Z,81.19
2022-12-18T10:17:55.605Z,80.78
2022-12-18T10:20:30.730Z,80.92
2022-12-18T10:22:57.174Z,81.30
2022-12-18T10:25:39.696Z,81.28
2022-12-18T10:28:15.250Z,81.04
2022-12-18T10:30:43.105Z,81.29
2022-12-18T10:33:16.849Z,80.67
2022-12-18T10:35:45.301Z,80.82
2022-12-18T10:38:17.594Z,80.46
2022-12-18T10:40:57.778Z,80.44
2022-12-18T10:43:29.102Z,80.24
2022-12-18T10:46:18.151Z,80.59
2022-12-18T10:48:47.572Z,81.12
2022-12-18T10:51:34.439Z,80.37
2022-12-18T10:54:14.121Z,80.63
2022-12-18T10:56:40.734Z,80.96
2022-12-18T10:59:10.894Z,81.34
2022-12-18T11:01:48.392Z,81.43
2022-12-18T11:04:27.161Z,81.74
2022-12-18T11:07:01.068Z,81.79
2022-12-18T11:09:33.317Z,81.95
2022-12-18T11:12:03.311Z,81.79
2022-12-18T11:15:00.640Z,82.15
2022-12-18T11:17:33.442Z,82.24
2022-12-18T11:20:20.447Z,82.61
2022-12-18T11:22:58.168Z,82.50
2022-12-18T11:25:33.339Z,82.35
2022-12-18T11:28:03.632Z,82.74
2022-12-18T11:30:31.525Z,83.12
2022-12-18T11:33:06.723Z,83.41
2022-12-18T11:35:53.841Z,84.06
2022-12-18T11:38:29.913Z,83.95
2022-12-18T11:41:01.393Z,84.95
2022-12-18T11:43:39.207Z,84.61
2022-12-18T11:46:17.675Z,84.51
2022-12-18T11:49:15.310Z,84.95
2022-12-18T11:52:01.324Z,85.38
2022-12-18T11:54:27.820Z,85.69
2022-12-18T11:57:04.384Z,85.95
2022-12-18T12:00:04.881Z,86.43
2022-12-18T12:02:49.931Z,86.96
2022-12-18T12:05:30.777Z,86.74
2022-12-18T12:08:42.801Z,86.96
2022-12-18T12:11:40.295Z,87.20
2022-12-18T12:14:19.099Z,87.55
2022-12-18T12:16:56.336Z,87.38
2022-12-18T12:19:29.139Z,87.92
2022-12-18T12:22:18.872Z,87.87
2022-12-18T12:24:54.711Z,87.98
2022-12-18T12:27:50.544Z,87.79
2022-12-18T12:30:22.689Z,88.36
2022-12-18T12:33:23.124Z,88.00
2022-12-18T12:36:23.156Z,88.88
2022-12-18T12:38:57.823Z,88.44
2022-12-18T12:41:50.888Z,88.83
2022-12-18T12:44:26.640Z,88.65
2022-12-18T12:47:00.353Z,89.36
2022-12-18T12:49:30.216Z,89.61
2022-12-18T12:52:05.328Z,89.89
2022-12-18T12:54:34.781Z,90.50
2022-12-18T12:57:21.862Z,90.86
2022-12-18T12:59:59.306Z,91.06
2022-12-18T13:02:45.093Z,91.08
2022-12-18T13:05:28.146Z,91.40
2022-12-18T13:08:00.366Z,91.45
2022-12-18T13:10:34.053Z,91.02
2022-12-18T13:13:09.220Z,91.56
2022-12-18T13:15:51.434Z,91.51
2022-12-18T13:18:26.282Z,91.03
2022-12-18T13:21:11.535Z,91.48
2022-12-18T13:23:42.192Z,90.66
2022-12-18T13:26:09.289Z,91.65
2022-12-18T13:28:48.033Z,90.88
2022-12-18T13:31:30.859Z,91.90
2022-12-18T13:34:26.746Z,92.10
2022-12-18T13:36:56.714Z,91.55
2022-12-18T13:39:35.316Z,92.66
2022-12-18T13:42:05.450Z,92.69
2022-12-18T13:44:44.481Z,92.61
2022-12-18T13:47:38.442Z,93.49
2022-12-18T13:50:33.949Z,94.04
2022-12-18T13:53:08.815Z,93.52
2022-12-18T13:55:35.661Z,93.05
2022-12-18T13:58:06.815Z,94.09
2022-12-18T14:00:35.466Z,94.16
2022-12-18T14:03:02.339Z,93.94
2022-12-18T14:05:32.100Z,93.97
2022-12-18T14:08:04.292Z,94.02
2022-12-18T14:10:48.475Z,93.65
2022-12-18T14:13:31.878Z,94.20
2022-12-18T14:16:05.018Z,94.92
2022-12-18T14:19:08.419Z,95.87
2022-12-18T14:21:41.937Z,94.66
2022-12-18T14:24:39.313Z,96.50
2022-12-18T14:27:26.947Z,96.24
2022-12-18T14:29:56.422Z,95.88
2022-12-18T14:32:31.612Z,97.04
2022-12-18T14:35:16.305Z,97.09
2022-12-18T14:54:02.806Z,99.50
2022-12-18T15:12:48.577Z,100.00
2022-12-18T15:19:23.074Z,99.99
2022-12-18T15:22:50.337Z,100.00
2022-12-18T15:25:57.912Z,100.00
2022-12-18T15:29:09.087Z,100.00
2022-12-18T15:32:23.331Z,100.00
2022-12-18T15:36:26.792Z,100.00
2022-12-18T15:39:21.626Z,100.00
2022-12-18T15:42:13.573Z,100.00
2022-12-18T15:44:48.573Z,100.00
2022-12-18T15:47:37.777Z,100.00
2022-12-18T15:50:15.102Z,100.00
2022-12-18T15:52:57.996Z,100.00
2022-12-18T15:56:00.758Z,100.00
2022-12-18T15:58:48.908Z,100.00
2022-12-18T16:01:18.913Z,100.00
2022-12-18T16:03:46.123Z,100.00
2022-12-18T16:06:40.305Z,100.00
2022-12-18T16:09:26.515Z,100.00
2022-12-18T16:11:57.831Z,100.00
2022-12-18T16:14:27.729Z,100.00
2022-12-18T16:17:04.732Z,100.00
2022-12-18T16:19:37.180Z,100.00
2022-12-18T16:22:21.780Z,100.00
2022-12-18T16:24:52.197Z,100.00
2022-12-18T16:27:23.015Z,100.00
2022-12-18T16:29:51.400Z,100.00
2022-12-18T16:32:22.269Z,100.00
2022-12-18T16:34:53.370Z,100.00
2022-12-18T16:37:22.328Z,100.00
2022-12-18T16:39:51.497Z,100.00
2022-12-18T16:42:20.641Z,100.00
2022-12-18T16:44:48.820Z,100.00
2022-12-18T16:47:16.123Z,100.00
2022-12-18T16:49:46.167Z,100.00
2022-12-18T16:52:16.964Z,100.00
2022-12-18T16:54:46.140Z,100.00
2022-12-18T16:57:15.752Z,100.00
2022-12-18T16:59:45.874Z,100.00
2022-12-18T17:02:20.297Z,100.00
2022-12-18T17:04:50.386Z,100.00
2022-12-18T17:07:17.151Z,100.00
2022-12-18T17:09:43.761Z,100.00
2022-12-18T17:12:10.788Z,100.00
2022-12-18T17:14:37.779Z,100.00
2022-12-18T17:17:21.901Z,100.00
2022-12-18T17:19:49.707Z,100.00
2022-12-18T17:22:16.874Z,100.00
2022-12-18T17:24:46.589Z,100.00
2022-12-18T17:27:13.273Z,100.00
2022-12-18T17:29:45.356Z,100.00
2022-12-18T17:32:17.902Z,100.00
2022-12-18T17:34:44.572Z,100.00
2022-12-18T17:37:11.342Z,100.00
2022-12-18T17:39:37.945Z,100.00
2022-12-18T17:42:05.308Z,100.00
2022-12-18T17:44:34.396Z,100.00
2022-12-18T17:47:01.584Z,100.00
2022-12-18T17:49:28.569Z,100.00
2022-12-18T17:51:55.509Z,100.00
2022-12-18T17:54:22.132Z,100.00
2022-12-18T17:56:48.853Z,100.00
2022-12-18T17:59:18.007Z,100.00
2022-12-18T18:01:47.684Z,100.00
2022-12-18T18:04:15.211Z,100.00
2022-12-18T18:06:41.916Z,100.00
2022-12-18T18:09:15.918Z,100.00
2022-12-18T18:12:04.565Z,100.00
2022-12-18T18:14:33.131Z,100.00
2022-12-18T18:17:04.742Z,100.00
2022-12-18T18:19:32.835Z,100.00
2022-12-18T18:21:59.546Z,100.00
2022-12-18T18:24:30.010Z,100.00
2022-12-18T18:27:01.192Z,100.00
2022-12-18T18:29:32.308Z,100.00
2022-12-18T18:31:59.243Z,100.00
2022-12-18T18:34:28.397Z,100.00
2022-12-18T18:36:57.324Z,100.00
2022-12-18T18:39:24.341Z,100.00
2022-12-18T18:41:52.940Z,100.00
2022-12-18T18:44:28.153Z,100.00
2022-12-18T18:46:56.489Z,100.00
2022-12-18T18:49:27.978Z,100.00
2022-12-18T18:51:56.985Z,100.00
2022-12-18T18:54:24.358Z,100.00
2022-12-18T18:59:38.288Z,100.00
2022-12-18T19:02:05.382Z,100.00
2022-12-18T19:04:33.893Z,100.00
2022-12-18T19:07:01.559Z,100.00
2022-12-18T19:09:30.115Z,100.00
2022-12-18T19:12:16.934Z,100.00
2022-12-18T19:14:44.095Z,100.00
2022-12-18T19:17:11.276Z,100.00
2022-12-18T19:19:38.179Z,100.00
2022-12-18T19:22:05.026Z,100.00
2022-12-18T19:24:33.127Z,100.00
2022-12-18T19:26:59.785Z,100.00
2022-12-18T19:29:26.313Z,100.00
2022-12-18T19:31:58.873Z,100.00
2022-12-18T19:34:27.718Z,100.00
2022-12-18T19:36:59.735Z,100.00
2022-12-18T19:39:26.526Z,100.00
2022-12-18T19:41:53.201Z,100.00
2022-12-18T19:44:20.873Z,100.00
2022-12-18T19:46:51.772Z,100.00
2022-12-18T19:49:18.456Z,100.00
2022-12-18T19:51:45.836Z,100.00
2022-12-18T19:54:17.006Z,100.00
2022-12-18T19:56:45.137Z,100.00
2022-12-18T19:59:11.993Z,100.00
2022-12-18T20:01:42.143Z,100.00
2022-12-18T20:04:09.177Z,100.00
2022-12-18T20:06:46.840Z,100.00
2022-12-18T20:09:14.047Z,100.00
2022-12-18T20:11:42.058Z,100.00
2022-12-18T20:14:13.646Z,100.00
2022-12-18T20:16:41.721Z,100.00
2022-12-18T20:19:12.185Z,100.00
2022-12-18T20:21:39.435Z,100.00
2022-12-18T20:24:08.307Z,100.00
2022-12-18T20:26:35.127Z,100.00
2022-12-18T20:29:01.794Z,100.00
2022-12-18T20:31:28.402Z,100.00
2022-12-18T20:34:00.228Z,100.00
2022-12-18T20:36:29.552Z,100.00
2022-12-18T20:39:04.054Z,100.00
2022-12-18T20:41:38.197Z,100.00
2022-12-18T20:44:23.623Z,100.00
2022-12-18T20:46:56.504Z,100.00
2022-12-18T20:49:26.032Z,100.00
2022-12-18T20:51:54.230Z,100.00
2022-12-18T20:54:24.037Z,100.00
2022-12-18T20:56:53.542Z,100.00
2022-12-18T20:59:20.729Z,100.00
2022-12-18T21:01:51.896Z,100.00
2022-12-18T21:04:21.338Z,100.00
2022-12-18T21:06:53.375Z,100.00
2022-12-18T21:09:24.575Z,100.00
2022-12-18T21:12:13.951Z,100.00
2022-12-18T21:14:41.534Z,100.00
2022-12-18T21:17:09.330Z,100.00
2022-12-18T21:19:36.318Z,100.00
2022-12-18T21:22:03.736Z,100.00
2022-12-18T21:24:32.729Z,100.00
2022-12-18T21:27:03.308Z,100.00
2022-12-18T21:29:32.487Z,100.00
2022-12-18T21:31:59.477Z,100.00
2022-12-18T21:34:28.862Z,100.00
2022-12-18T21:36:57.332Z,100.00
2022-12-18T21:39:25.170Z,100.00
2022-12-18T21:42:10.969Z,100.00
2022-12-18T21:44:41.583Z,100.00
2022-12-18T21:47:14.555Z,100.00
2022-12-18T21:49:48.387Z,100.00
2022-12-18T21:52:14.938Z,100.00
2022-12-18T21:54:41.548Z,100.00
2022-12-18T21:57:08.781Z,100.00
2022-12-18T21:59:40.528Z,100.00
2022-12-18T22:02:12.185Z,100.00
2022-12-18T22:04:39.173Z,100.00
2022-12-18T22:07:06.175Z,100.00
2022-12-18T22:09:33.431Z,100.00
2022-12-18T22:12:00.602Z,100.00
2022-12-18T22:14:30.230Z,100.00
2022-12-18T22:16:57.446Z,100.00
2022-12-18T22:19:25.802Z,100.00
2022-12-18T22:21:53.186Z,100.00
2022-12-18T22:24:25.127Z,100.00
2022-12-18T22:26:54.190Z,100.00
2022-12-18T22:29:44.706Z,100.00
2022-12-18T22:32:16.357Z,100.00
2022-12-18T22:34:43.614Z,100.00
2022-12-18T22:37:12.069Z,100.00
2022-12-18T22:39:38.634Z,100.00
2022-12-18T22:42:05.362Z,100.00
2022-12-18T22:44:32.072Z,100.00
2022-12-18T22:47:05.928Z,100.00
2022-12-18T22:49:34.712Z,100.00
2022-12-18T22:52:02.180Z,100.00
2022-12-18T22:54:28.747Z,100.00
2022-12-18T22:56:55.649Z,100.00
2022-12-18T22:59:25.396Z,100.00
2022-12-18T23:01:57.967Z,100.00
2022-12-18T23:04:35.924Z,100.00
2022-12-18T23:07:04.561Z,100.00
2022-12-18T23:09:31.369Z,100.00
2022-12-18T23:11:57.939Z,100.00
2022-12-18T23:14:24.438Z,100.00
2022-12-18T23:16:51.477Z,100.00
2022-12-18T23:19:19.700Z,100.00
2022-12-18T23:21:46.285Z,100.00
2022-12-18T23:24:13.105Z,100.00
2022-12-18T23:26:39.624Z,100.00
2022-12-18T23:29:06.414Z,100.00
2022-12-18T23:31:35.528Z,100.00
2022-12-18T23:34:05.748Z,100.00
2022-12-18T23:36:37.631Z,100.00
2022-12-18T23:39:12.824Z,100.00
2022-12-18T23:41:55.103Z,100.00
2022-12-18T23:44:21.709Z,100.00
2022-12-18T23:46:48.209Z,100.00
2022-12-18T23:49:14.837Z,100.00
2022-12-18T23:51:41.408Z,100.00
2022-12-18T23:54:09.447Z,100.00
2022-12-18T23:56:36.399Z,100.00
2022-12-18T23:59:03.147Z,100.00
